createdAt,value
2023-04-02T00:02:32.750Z,12.60
2023-04-02T00:05:51.618Z,12.50
2023-04-02T00:08:25.001Z,12.70
2023-04-02T00:10:53.323Z,12.20
2023-04-02T00:13:31.810Z,12.50
2023-04-02T00:15:59.995Z,12.40
2023-04-02T00:18:28.181Z,12.40
2023-04-02T00:21:00.824Z,12.30
2023-04-02T00:23:29.072Z,12.60
2023-04-02T00:25:57.179Z,12.30
2023-04-02T00:28:26.659Z,12.40
2023-04-02T00:30:56.326Z,12.20
2023-04-02T00:33:25.390Z,12.30
2023-04-02T00:35:54.571Z,12.50
2023-04-02T00:38:25.000Z,12.60
2023-04-02T00:40:53.319Z,12.30
2023-04-02T00:43:22.813Z,12.50
2023-04-02T00:45:55.645Z,12.50
2023-04-02T00:48:37.127Z,12.60
2023-04-02T00:51:11.913Z,12.60
2023-04-02T00:53:39.954Z,12.30
2023-04-02T00:56:13.949Z,12.20
2023-04-02T00:58:42.110Z,12.20
2023-04-02T01:01:19.165Z,12.40
2023-04-02T01:03:58.210Z,12.20
2023-04-02T01:06:29.955Z,12.20
2023-04-02T01:09:21.789Z,12.00
2023-04-02T01:12:02.084Z,12.20
2023-04-02T01:14:38.309Z,12.00
2023-04-02T01:17:10.936Z,12.10
2023-04-02T01:20:30.049Z,11.80
2023-04-02T01:22:59.378Z,12.00
2023-04-02T01:25:30.004Z,11.90
2023-04-02T01:28:00.450Z,11.90
2023-04-02T01:30:29.938Z,12.00
2023-04-02T01:32:58.010Z,12.20
2023-04-02T01:35:26.152Z,12.20
2023-04-02T01:37:56.546Z,12.10
2023-04-02T01:40:33.614Z,12.00
2023-04-02T01:43:07.636Z,12.00
2023-04-02T01:45:39.183Z,11.90
2023-04-02T01:48:07.515Z,12.10
2023-04-02T01:50:37.289Z,11.80
2023-04-02T01:53:06.307Z,12.00
2023-04-02T01:55:36.482Z,12.00
2023-04-02T01:58:05.713Z,11.90
2023-04-02T02:00:33.835Z,12.20
2023-04-02T02:03:03.353Z,12.00
2023-04-02T02:05:31.486Z,12.00
2023-04-02T02:08:01.325Z,12.10
2023-04-02T02:10:31.232Z,12.00
2023-04-02T02:13:00.348Z,11.90
2023-04-02T02:15:28.386Z,12.10
2023-04-02T02:17:56.975Z,11.80
2023-04-02T02:20:26.617Z,12.00
2023-04-02T02:22:54.763Z,11.90
2023-04-02T02:25:23.687Z,11.60
2023-04-02T02:27:55.983Z,11.90
2023-04-02T02:30:26.022Z,11.80
2023-04-02T02:32:57.227Z,12.20
2023-04-02T02:35:28.164Z,12.00
2023-04-02T02:37:57.850Z,11.90
2023-04-02T02:40:29.009Z,12.20
2023-04-02T02:42:58.829Z,12.30
2023-04-02T02:45:27.870Z,12.00
2023-04-02T02:47:55.971Z,12.20
2023-04-02T02:50:26.887Z,12.20
2023-04-02T02:52:55.814Z,12.20
2023-04-02T02:55:25.044Z,12.40
2023-04-02T02:57:55.053Z,12.20
2023-04-02T03:00:24.696Z,12.20
2023-04-02T03:02:52.929Z,12.20
2023-04-02T03:05:22.763Z,12.20
2023-04-02T03:07:53.412Z,12.30
2023-04-02T03:10:24.005Z,12.00
2023-04-02T03:12:54.292Z,12.30
2023-04-02T03:15:24.174Z,12.20
2023-04-02T03:17:54.686Z,12.20
2023-04-02T03:20:25.946Z,12.00
2023-04-02T03:22:57.637Z,11.80
2023-04-02T03:25:29.677Z,11.70
2023-04-02T03:27:59.546Z,11.90
2023-04-02T03:30:31.241Z,11.90
2023-04-02T03:33:02.294Z,11.80
2023-04-02T03:35:35.467Z,12.20
2023-04-02T03:38:06.553Z,12.20
2023-04-02T03:40:36.189Z,12.30
2023-04-02T03:43:06.501Z,12.20
2023-04-02T03:45:37.244Z,12.20
2023-04-02T03:48:06.748Z,12.00
2023-04-02T03:50:36.586Z,12.00
2023-04-02T03:53:06.382Z,12.10
2023-04-02T03:55:37.020Z,12.00
2023-04-02T03:58:06.362Z,12.00
2023-04-02T04:00:36.469Z,11.70
2023-04-02T04:03:08.298Z,11.80
2023-04-02T04:05:37.291Z,11.70
2023-04-02T04:08:08.182Z,12.00
2023-04-02T04:10:36.352Z,12.00
2023-04-02T04:13:06.011Z,12.20
2023-04-02T04:15:36.177Z,11.60
2023-04-02T04:18:06.732Z,11.90
2023-04-02T04:20:36.923Z,11.70
2023-04-02T04:23:16.531Z,12.20
2023-04-02T04:25:44.558Z,12.10
2023-04-02T04:28:17.406Z,11.90
2023-04-02T04:30:51.481Z,12.20
2023-04-02T04:33:22.992Z,11.80
2023-04-02T04:35:52.907Z,12.20
2023-04-02T04:38:27.862Z,12.20
2023-04-02T04:40:57.638Z,12.00
2023-04-02T04:43:31.104Z,12.00
2023-04-02T04:46:01.994Z,12.20
2023-04-02T04:48:35.236Z,12.20
2023-04-02T04:51:05.938Z,12.10
2023-04-02T04:53:35.790Z,12.30
2023-04-02T04:56:18.120Z,12.00
2023-04-02T04:58:49.356Z,12.20
2023-04-02T05:01:18.578Z,11.80
2023-04-02T05:03:47.791Z,12.10
2023-04-02T05:06:24.756Z,12.20
2023-04-02T05:08:54.588Z,12.00
2023-04-02T05:11:25.545Z,12.20
2023-04-02T05:13:54.705Z,12.40
2023-04-02T05:16:24.929Z,12.40
2023-04-02T05:18:54.689Z,12.10
2023-04-02T05:21:25.100Z,12.30
2023-04-02T05:23:56.072Z,12.40
2023-04-02T05:26:26.102Z,12.40
2023-04-02T05:28:56.564Z,12.70
2023-04-02T05:31:26.356Z,12.30
2023-04-02T05:33:54.407Z,12.10
2023-04-02T05:36:23.718Z,12.10
2023-04-02T05:38:52.154Z,12.30
2023-04-02T05:41:26.984Z,11.90
2023-04-02T05:44:00.275Z,12.30
2023-04-02T05:46:29.614Z,12.20
2023-04-02T05:48:58.943Z,12.20
2023-04-02T05:51:29.407Z,12.40
2023-04-02T05:53:58.443Z,12.00
2023-04-02T05:56:29.882Z,12.00
2023-04-02T05:59:00.080Z,12.30
2023-04-02T06:01:34.874Z,12.30
2023-04-02T06:04:06.372Z,12.20
2023-04-02T06:06:52.480Z,12.10
2023-04-02T06:09:23.595Z,12.40
2023-04-02T06:11:57.262Z,12.40
2023-04-02T06:14:25.332Z,12.30
2023-04-02T06:16:53.480Z,12.20
2023-04-02T06:19:23.619Z,12.30
2023-04-02T06:21:52.451Z,12.20
2023-04-02T06:24:22.946Z,12.20
2023-04-02T06:26:53.424Z,12.30
2023-04-02T06:29:25.160Z,12.30
2023-04-02T06:31:55.348Z,12.60
2023-04-02T06:34:24.588Z,12.30
2023-04-02T06:36:53.085Z,12.50
2023-04-02T06:39:22.834Z,12.60
2023-04-02T06:41:57.668Z,12.30
2023-04-02T06:44:27.399Z,12.40
2023-04-02T06:46:56.489Z,12.60
2023-04-02T06:49:25.382Z,12.70
2023-04-02T06:51:54.761Z,12.10
2023-04-02T06:54:22.977Z,12.50
2023-04-02T06:56:54.236Z,12.30
2023-04-02T06:59:24.048Z,12.50
2023-04-02T07:01:53.475Z,12.70
2023-04-02T07:04:22.013Z,12.40
2023-04-02T07:06:50.203Z,12.40
2023-04-02T07:09:18.375Z,12.50
2023-04-02T07:11:46.861Z,12.30
2023-04-02T07:14:14.938Z,12.20
2023-04-02T07:16:44.441Z,12.30
2023-04-02T07:19:17.888Z,12.70
2023-04-02T07:21:46.043Z,12.50
2023-04-02T07:24:14.296Z,12.70
2023-04-02T07:26:43.381Z,12.60
2023-04-02T07:29:16.039Z,12.80
2023-04-02T07:31:50.168Z,12.80
2023-04-02T07:34:21.094Z,13.00
2023-04-02T07:36:57.673Z,12.90
2023-04-02T07:39:26.993Z,13.00
2023-04-02T07:41:57.222Z,13.00
2023-04-02T07:44:33.397Z,12.50
2023-04-02T07:47:42.059Z,12.50
2023-04-02T07:50:18.912Z,12.60
2023-04-02T07:53:03.608Z,12.80
2023-04-02T07:55:40.048Z,12.80
2023-04-02T07:58:14.530Z,13.10
2023-04-02T08:00:46.104Z,12.70
2023-04-02T08:03:20.790Z,13.20
2023-04-02T08:05:55.866Z,12.80
2023-04-02T08:08:29.926Z,13.20
2023-04-02T08:11:03.281Z,12.90
2023-04-02T08:13:34.834Z,13.20
2023-04-02T08:16:07.287Z,13.40
2023-04-02T08:18:38.571Z,13.20
2023-04-02T08:21:09.715Z,13.30
2023-04-02T08:23:40.695Z,13.20
2023-04-02T08:26:10.121Z,13.40
2023-04-02T08:28:39.524Z,13.20
2023-04-02T08:31:09.401Z,13.30
2023-04-02T08:33:44.044Z,13.20
2023-04-02T08:36:17.540Z,13.30
2023-04-02T08:38:46.957Z,13.40
2023-04-02T08:41:22.087Z,13.70
2023-04-02T08:44:07.302Z,14.00
2023-04-02T08:46:38.651Z,13.70
2023-04-02T08:49:12.928Z,14.00
2023-04-02T08:51:41.450Z,14.00
2023-04-02T08:54:13.652Z,14.10
2023-04-02T08:56:43.474Z,14.20
2023-04-02T08:59:17.079Z,13.80
2023-04-02T09:01:48.325Z,13.70
2023-04-02T09:04:18.869Z,14.00
2023-04-02T09:06:47.044Z,14.00
2023-04-02T09:09:15.349Z,13.50
2023-04-02T09:11:47.582Z,14.20
2023-04-02T09:14:17.175Z,14.20
2023-04-02T09:16:46.017Z,13.70
2023-04-02T09:19:18.384Z,13.70
2023-04-02T09:21:49.071Z,13.60
2023-04-02T09:24:17.290Z,13.80
2023-04-02T09:26:45.634Z,14.20
2023-04-02T09:29:38.907Z,14.00
2023-04-02T09:32:14.335Z,14.00
2023-04-02T09:34:43.831Z,14.00
2023-04-02T09:37:16.278Z,14.30
2023-04-02T09:39:44.384Z,14.10
2023-04-02T09:42:30.572Z,14.20
2023-04-02T09:45:13.571Z,14.70
2023-04-02T09:47:42.509Z,14.90
2023-04-02T09:50:29.554Z,15.00
2023-04-02T09:52:57.686Z,14.80
2023-04-02T09:55:27.433Z,14.40
2023-04-02T09:58:09.156Z,14.30
2023-04-02T10:00:37.262Z,14.40
2023-04-02T10:03:07.231Z,14.00
2023-04-02T10:05:41.081Z,14.30
2023-04-02T10:08:17.505Z,14.60
2023-04-02T10:10:46.305Z,14.40
2023-04-02T10:13:19.915Z,14.40
2023-04-02T10:15:49.769Z,14.60
2023-04-02T10:18:22.581Z,14.80
2023-04-02T10:20:52.232Z,15.20
2023-04-02T10:23:20.599Z,14.80
2023-04-02T10:25:55.130Z,15.20
2023-04-02T10:28:29.136Z,14.30
2023-04-02T10:30:59.561Z,14.40
2023-04-02T10:33:30.653Z,14.00
2023-04-02T10:36:03.911Z,14.20
2023-04-02T10:38:38.835Z,14.80
2023-04-02T10:41:09.975Z,15.20
2023-04-02T10:43:49.900Z,15.30
2023-04-02T10:46:24.440Z,15.40
2023-04-02T10:48:57.719Z,14.60
2023-04-02T10:51:30.818Z,15.10
2023-04-02T10:54:01.104Z,15.30
2023-04-02T10:56:35.142Z,15.20
2023-04-02T10:59:13.326Z,15.50
2023-04-02T11:01:41.638Z,15.80
2023-04-02T11:04:14.612Z,15.80
2023-04-02T11:06:46.036Z,16.30
2023-04-02T11:09:17.102Z,16.90
2023-04-02T11:11:46.245Z,16.70
2023-04-02T11:14:15.479Z,16.60
2023-04-02T11:16:44.801Z,16.80
2023-04-02T11:19:24.955Z,17.40
2023-04-02T11:22:00.331Z,17.10
2023-04-02T11:24:38.063Z,16.40
2023-04-02T11:27:08.402Z,17.00
2023-04-02T11:29:37.644Z,16.20
2023-04-02T11:32:39.569Z,16.60
2023-04-02T11:35:39.202Z,16.60
2023-04-02T11:38:45.459Z,16.80
2023-04-02T11:41:15.764Z,16.40
2023-04-02T11:43:51.862Z,16.50
2023-04-02T11:46:45.887Z,16.80
2023-04-02T11:49:36.617Z,16.50
2023-04-02T11:52:12.352Z,16.30
2023-04-02T11:54:40.917Z,15.80
2023-04-02T11:57:20.274Z,16.00
2023-04-02T11:59:53.598Z,16.20
2023-04-02T12:02:22.395Z,16.10
2023-04-02T12:05:07.671Z,16.00
2023-04-02T12:07:59.181Z,16.20
2023-04-02T12:10:29.317Z,14.70
2023-04-02T12:12:58.922Z,14.60
2023-04-02T12:15:41.316Z,13.90
2023-04-02T12:18:14.905Z,14.40
2023-04-02T12:20:45.042Z,13.80
2023-04-02T12:23:18.924Z,13.70
2023-04-02T12:25:48.763Z,14.10
2023-04-02T12:28:22.479Z,14.30
2023-04-02T12:30:51.285Z,13.70
2023-04-02T12:33:31.414Z,13.90
2023-04-02T12:36:00.011Z,13.80
2023-04-02T12:38:29.605Z,13.70
2023-04-02T12:40:58.492Z,13.70
2023-04-02T12:43:29.125Z,13.40
2023-04-02T12:45:58.026Z,13.70
2023-04-02T12:48:26.625Z,14.10
2023-04-02T12:50:54.751Z,13.80
2023-04-02T12:53:23.790Z,13.70
2023-04-02T12:55:52.418Z,13.70
2023-04-02T12:58:26.722Z,13.70
2023-04-02T13:01:11.928Z,13.70
2023-04-02T13:03:40.098Z,13.40
2023-04-02T13:06:20.340Z,13.60
2023-04-02T13:08:48.446Z,13.80
2023-04-02T13:11:16.549Z,13.70
2023-04-02T13:13:46.341Z,13.60
2023-04-02T13:16:30.135Z,13.60
2023-04-02T13:19:11.824Z,13.80
2023-04-02T13:21:39.940Z,13.70
2023-04-02T13:24:18.084Z,13.70
2023-04-02T13:26:47.951Z,13.90
2023-04-02T13:29:21.901Z,13.40
2023-04-02T13:31:51.532Z,13.70
2023-04-02T13:34:19.660Z,13.90
2023-04-02T13:36:47.892Z,13.80
2023-04-02T13:39:16.191Z,13.70
2023-04-02T13:41:45.104Z,13.90
2023-04-02T13:44:23.370Z,14.10
2023-04-02T13:46:53.114Z,13.70
2023-04-02T13:49:21.242Z,13.50
2023-04-02T13:51:50.167Z,13.30
2023-04-02T13:54:21.412Z,13.50
2023-04-02T13:56:49.680Z,13.80
2023-04-02T13:59:17.746Z,13.40
2023-04-02T14:01:46.571Z,13.70
2023-04-02T14:04:19.262Z,13.90
2023-04-02T14:06:59.503Z,13.70
2023-04-02T14:09:30.408Z,13.70
2023-04-02T14:12:01.378Z,13.30
2023-04-02T14:14:37.113Z,13.60
2023-04-02T14:17:14.748Z,13.70
2023-04-02T14:20:09.355Z,13.70
2023-04-02T14:22:56.047Z,13.70
2023-04-02T14:25:47.624Z,13.50
2023-04-02T14:28:29.733Z,13.70
2023-04-02T14:31:14.845Z,13.50
2023-04-02T14:33:57.472Z,13.40
2023-04-02T14:36:43.801Z,13.60
2023-04-02T14:39:16.054Z,13.20
2023-04-02T14:41:49.745Z,13.40
2023-04-02T14:44:20.666Z,13.40
2023-04-02T14:47:05.119Z,13.60
2023-04-02T14:49:40.320Z,13.10
2023-04-02T14:52:24.234Z,12.90
2023-04-02T14:54:55.664Z,13.00
2023-04-02T14:57:28.165Z,13.00
2023-04-02T15:00:03.664Z,13.10
2023-04-02T15:02:53.939Z,13.20
2023-04-02T15:05:40.102Z,12.70
2023-04-02T15:08:20.095Z,13.20
2023-04-02T15:11:05.711Z,13.00
2023-04-02T15:13:38.539Z,12.50
2023-04-02T15:16:14.662Z,12.90
2023-04-02T15:18:46.097Z,12.90
2023-04-02T15:21:43.440Z,12.60
2023-04-02T15:24:23.088Z,13.00
2023-04-02T15:26:57.324Z,12.80
2023-04-02T15:29:29.648Z,12.90
2023-04-02T15:32:13.989Z,13.00
2023-04-02T15:34:49.660Z,12.60
2023-04-02T15:37:23.478Z,12.70
2023-04-02T15:40:09.576Z,12.80
2023-04-02T15:42:42.557Z,12.70
2023-04-02T15:45:43.554Z,12.60
2023-04-02T15:49:02.435Z,12.80
2023-04-02T15:51:43.242Z,12.80
2023-04-02T15:54:38.961Z,12.70
2023-04-02T15:57:17.306Z,12.60
2023-04-02T16:00:18.348Z,12.40
2023-04-02T16:03:14.395Z,12.70
2023-04-02T16:06:06.069Z,12.70
2023-04-02T16:08:59.444Z,12.70
2023-04-02T16:11:27.845Z,12.30
2023-04-02T16:14:01.156Z,12.20
2023-04-02T16:16:32.760Z,12.10
2023-04-02T16:19:03.567Z,12.60
2023-04-02T16:21:34.313Z,12.00
2023-04-02T16:24:02.845Z,12.20
2023-04-02T16:26:38.075Z,12.10
2023-04-02T16:29:33.529Z,12.10
2023-04-02T16:32:05.745Z,12.00
2023-04-02T16:34:38.183Z,11.80
2023-04-02T16:37:11.527Z,11.80
2023-04-02T16:39:41.366Z,12.20
2023-04-02T16:42:15.650Z,11.80
2023-04-02T16:45:00.990Z,12.00
2023-04-02T16:47:39.040Z,12.00
2023-04-02T16:50:12.689Z,12.20
2023-04-02T16:52:43.537Z,12.00
2023-04-02T16:55:23.456Z,12.00
2023-04-02T16:57:55.540Z,12.10
2023-04-02T17:00:28.065Z,11.80
2023-04-02T17:03:03.234Z,11.50
2023-04-02T17:05:32.516Z,12.00
2023-04-02T17:08:08.713Z,12.20
2023-04-02T17:10:43.259Z,11.70
2023-04-02T17:13:19.389Z,11.80
2023-04-02T17:15:50.498Z,11.70
2023-04-02T17:18:20.107Z,11.50
2023-04-02T17:20:48.573Z,11.60
2023-04-02T17:23:16.932Z,11.70
2023-04-02T17:25:48.984Z,11.40
2023-04-02T17:28:18.903Z,11.70
2023-04-02T17:30:49.345Z,11.60
2023-04-02T17:33:18.319Z,11.60
2023-04-02T17:35:52.312Z,11.40
2023-04-02T17:38:22.974Z,11.10
2023-04-02T17:40:52.435Z,10.80
2023-04-02T17:43:29.858Z,10.80
2023-04-02T17:46:03.047Z,11.10
2023-04-02T17:48:33.795Z,11.10
2023-04-02T17:51:09.958Z,10.80
2023-04-02T17:53:49.714Z,10.70
2023-04-02T17:56:24.627Z,11.00
2023-04-02T17:59:12.408Z,10.50
2023-04-02T18:01:46.844Z,10.70
2023-04-02T18:04:20.109Z,10.40
2023-04-02T18:06:51.694Z,10.70
2023-04-02T18:09:27.193Z,10.80
2023-04-02T18:12:01.537Z,10.80
2023-04-02T18:14:37.589Z,11.00
2023-04-02T18:17:09.870Z,10.90
2023-04-02T18:19:40.534Z,10.70
2023-04-02T18:22:12.797Z,11.00
2023-04-02T18:24:50.266Z,11.20
2023-04-02T18:27:32.232Z,11.10
2023-04-02T18:30:05.305Z,10.70
2023-04-02T18:32:46.106Z,10.20
2023-04-02T18:35:17.548Z,10.50
2023-04-02T18:37:54.520Z,10.50
2023-04-02T18:40:32.480Z,10.50
2023-04-02T18:43:03.712Z,10.60
2023-04-02T18:45:44.790Z,10.20
2023-04-02T18:48:21.911Z,9.90
2023-04-02T18:50:50.228Z,10.00
2023-04-02T18:53:19.414Z,10.40
2023-04-02T18:55:49.465Z,10.00
2023-04-02T18:58:21.133Z,10.00
2023-04-02T19:00:49.130Z,10.30
2023-04-02T19:03:21.290Z,10.30
2023-04-02T19:05:52.313Z,9.80
2023-04-02T19:08:22.390Z,10.20
2023-04-02T19:10:52.665Z,9.90
2023-04-02T19:13:21.439Z,9.80
2023-04-02T19:16:31.273Z,9.70
2023-04-02T19:19:05.114Z,9.60
2023-04-02T19:21:36.817Z,9.80
2023-04-02T19:24:14.074Z,9.30
2023-04-02T19:26:45.264Z,9.70
2023-04-02T19:29:19.708Z,9.60
2023-04-02T19:31:51.567Z,9.70
2023-04-02T19:34:24.601Z,9.50
2023-04-02T19:36:54.716Z,9.40
2023-04-02T19:39:46.807Z,9.60
2023-04-02T19:42:20.676Z,9.20
2023-04-02T19:44:51.119Z,9.00
2023-04-02T19:47:19.520Z,9.50
2023-04-02T19:49:49.031Z,9.40
2023-04-02T19:52:17.259Z,9.60
2023-04-02T19:54:45.338Z,9.70
2023-04-02T19:57:13.922Z,9.70
2023-04-02T19:59:42.057Z,10.30
2023-04-02T20:02:13.611Z,9.90
2023-04-02T20:04:42.624Z,9.90
2023-04-02T20:07:12.438Z,9.90
2023-04-02T20:09:40.582Z,9.70
2023-04-02T20:12:09.652Z,10.00
2023-04-02T20:14:37.749Z,9.90
2023-04-02T20:17:05.797Z,9.80
2023-04-02T20:19:33.848Z,9.90
2023-04-02T20:22:01.867Z,10.20
2023-04-02T20:24:31.283Z,10.10
2023-04-02T20:26:59.364Z,9.80
2023-04-02T20:29:29.442Z,9.60
2023-04-02T20:31:57.636Z,9.70
2023-04-02T20:34:25.974Z,9.70
2023-04-02T20:36:54.160Z,9.30
2023-04-02T20:39:22.425Z,9.30
2023-04-02T20:41:51.889Z,9.30
2023-04-02T20:44:19.932Z,9.30
2023-04-02T20:46:47.952Z,9.50
2023-04-02T20:49:16.029Z,9.90
2023-04-02T20:51:44.099Z,9.60
2023-04-02T20:54:12.171Z,9.70
2023-04-02T20:56:40.515Z,10.00
2023-04-02T20:59:10.118Z,10.00
2023-04-02T21:01:38.700Z,9.40
2023-04-02T21:04:07.036Z,10.00
2023-04-02T21:06:35.857Z,10.30
2023-04-02T21:09:05.344Z,10.10
2023-04-02T21:11:35.163Z,9.80
2023-04-02T21:14:04.284Z,10.00
2023-04-02T21:16:34.261Z,10.00
2023-04-02T21:19:03.465Z,10.00
2023-04-02T21:21:33.380Z,10.00
2023-04-02T21:24:02.505Z,9.90
2023-04-02T21:26:32.543Z,9.70
2023-04-02T21:29:02.397Z,10.00
2023-04-02T21:31:31.550Z,10.00
2023-04-02T21:34:01.733Z,10.00
2023-04-02T21:36:30.610Z,9.70
2023-04-02T21:38:59.595Z,9.60
2023-04-02T21:41:28.750Z,9.70
2023-04-02T21:43:57.638Z,9.90
2023-04-02T21:46:26.905Z,9.20
2023-04-02T21:48:56.024Z,9.50
2023-04-02T21:51:26.505Z,9.50
2023-04-02T21:53:54.721Z,9.50
2023-04-02T21:56:23.791Z,9.20
2023-04-02T21:58:52.054Z,9.30
2023-04-02T22:01:27.405Z,8.70
2023-04-02T22:03:56.448Z,9.00
2023-04-02T22:06:26.718Z,9.10
2023-04-02T22:08:55.504Z,9.30
2023-04-02T22:11:24.451Z,8.70
2023-04-02T22:13:52.525Z,9.00
2023-04-02T22:16:21.697Z,8.90
2023-04-02T22:18:49.947Z,9.10
2023-04-02T22:21:17.973Z,9.50
2023-04-02T22:23:47.405Z,9.00
2023-04-02T22:26:15.919Z,9.20
2023-04-02T22:28:44.010Z,9.20
2023-04-02T22:31:13.860Z,8.80
2023-04-02T22:33:41.953Z,8.70
2023-04-02T22:36:10.483Z,8.80
2023-04-02T22:38:38.599Z,8.60
2023-04-02T22:41:09.226Z,9.10
2023-04-02T22:43:37.626Z,8.90
2023-04-02T22:46:06.264Z,8.80
2023-04-02T22:48:34.458Z,8.70
2023-04-02T22:51:02.536Z,8.70
2023-04-02T22:53:30.699Z,8.50
2023-04-02T22:56:03.204Z,8.80
2023-04-02T22:58:32.608Z,8.70
2023-04-02T23:01:04.551Z,8.40
2023-04-02T23:03:32.583Z,8.70
2023-04-02T23:06:01.060Z,8.60
2023-04-02T23:08:29.359Z,8.90
2023-04-02T23:11:07.508Z,8.70
2023-04-02T23:13:37.107Z,9.10
2023-04-02T23:16:06.477Z,8.70
2023-04-02T23:18:34.601Z,8.70
2023-04-02T23:21:02.646Z,8.70
2023-04-02T23:23:31.515Z,8.40
2023-04-02T23:26:06.689Z,8.80
2023-04-02T23:28:36.446Z,8.80
2023-04-02T23:31:04.686Z,8.40
2023-04-02T23:33:32.747Z,8.50
2023-04-02T23:36:00.837Z,8.70
2023-04-02T23:38:28.931Z,8.70
2023-04-02T23:40:56.951Z,8.50
2023-04-02T23:43:25.033Z,8.60
2023-04-02T23:45:54.873Z,8.80
2023-04-02T23:48:22.939Z,8.90
2023-04-02T23:50:51.090Z,8.70
2023-04-02T23:53:19.510Z,8.90
2023-04-02T23:55:47.559Z,8.80
2023-04-02T23:58:15.583Z,8.90
